Time;durP1;ratioP1;P1;durP2;ratioP2;P2;SDS_P1;SDS_P2;PMS_P1;PMS_P2;Temp;Humidity;BMP_temperature;BMP_pressure;BME280_temperature;BME280_humidity;BME280_pressure;Samples;Min_cycle;Max_cycle;Signal;HPM_P1;HPM_P2
2021/04/04 00:01:56;;;;;;;10.15;4.78;;;;;;;6.34;52.78;101226.59;6213456;23;20103;-85
2021/04/04 00:04:23;;;;;;;11.90;4.78;;;;;;;6.30;53.20;101217.03;6186482;23;20674;-84
2021/04/04 00:06:49;;;;;;;11.55;4.95;;;;;;;6.34;53.37;101231.88;6215496;23;20048;-84
2021/04/04 00:09:19;;;;;;;13.02;4.43;;;;;;;6.29;53.57;101223.19;6213369;23;20051;-84
2021/04/04 00:11:49;;;;;;;16.00;4.43;;;;;;;6.25;53.14;101216.25;6219441;23;20046;-84
2021/04/04 00:14:17;;;;;;;10.30;4.43;;;;;;;6.26;53.45;101220.63;6221595;23;20032;-84
2021/04/04 00:16:44;;;;;;;9.95;4.20;;;;;;;6.26;53.12;101218.84;6214647;23;20020;-83
2021/04/04 00:19:11;;;;;;;11.63;4.47;;;;;;;6.27;53.58;101207.44;6213210;23;20032;-84
2021/04/04 00:21:39;;;;;;;9.65;4.40;;;;;;;6.29;53.86;101223.19;6214042;23;20374;-84
2021/04/04 00:24:06;;;;;;;13.70;4.70;;;;;;;6.28;54.09;101216.19;6187616;23;20084;-83
2021/04/04 00:26:33;;;;;;;7.90;3.63;;;;;;;6.28;53.59;101216.19;6216001;23;20048;-84
2021/04/04 00:28:59;;;;;;;8.75;3.63;;;;;;;6.28;53.77;101218.84;6213861;23;20099;-84
2021/04/04 00:31:26;;;;;;;8.00;4.22;;;;;;;6.28;53.94;101221.47;6214314;23;20082;-84
2021/04/04 00:33:52;;;;;;;11.32;4.22;;;;;;;6.26;53.59;101218.84;6214500;23;20040;-84
2021/04/04 00:36:18;;;;;;;8.93;4.07;;;;;;;6.21;54.33;101201.41;6217301;23;20127;-84
2021/04/04 00:38:46;;;;;;;12.50;4.57;;;;;;;6.28;53.89;101214.44;6219476;23;20062;-84
2021/04/04 00:41:14;;;;;;;11.13;4.10;;;;;;;6.24;53.64;101209.25;6224516;23;20008;-84
2021/04/04 00:43:42;;;;;;;11.73;4.30;;;;;;;6.26;53.75;101215.34;6238280;23;20060;-83
2021/04/04 00:46:09;;;;;;;10.65;4.57;;;;;;;6.25;53.64;101208.34;6210884;23;20027;-84
2021/04/04 00:48:40;;;;;;;10.88;4.55;;;;;;;6.23;53.80;101204.88;6235960;23;20020;-84
2021/04/04 00:51:06;;;;;;;9.73;4.50;;;;;;;6.22;54.36;101205.78;6233739;23;20036;-84
2021/04/04 00:53:33;;;;;;;10.32;4.57;;;;;;;6.16;53.84;101203.22;6236024;23;20031;-83
2021/04/04 00:56:00;;;;;;;10.23;4.30;;;;;;;6.09;53.17;101202.47;6236214;23;20017;-82
2021/04/04 00:58:27;;;;;;;10.27;4.20;;;;;;;6.02;53.73;101207.84;6235359;23;20032;-84
2021/04/04 01:00:53;;;;;;;8.55;4.18;;;;;;;5.95;53.95;101210.56;6235519;23;20031;-83
2021/04/04 01:03:19;;;;;;;11.32;4.88;;;;;;;5.90;54.18;101207.13;6201630;23;20024;-84
2021/04/04 01:05:47;;;;;;;8.63;4.65;;;;;;;5.88;54.13;101198.41;6219749;23;20108;-83
2021/04/04 01:08:14;;;;;;;11.18;5.20;;;;;;;5.87;54.59;101201.03;6222426;23;20052;-84
2021/04/04 01:10:43;;;;;;;12.77;4.78;;;;;;;5.88;54.75;101208.91;6197167;23;20107;-84
2021/04/04 01:13:46;;;;;;;10.05;4.97;;;;;;;5.83;55.09;101208.06;6226977;23;20012;-84
2021/04/04 01:16:21;;;;;;;12.63;4.55;;;;;;;5.65;54.77;101189.97;6228744;23;20036;-81
2021/04/04 01:18:58;;;;;;;12.65;4.43;;;;;;;5.76;55.63;101213.44;6228578;23;20031;-82
2021/04/04 01:21:41;;;;;;;10.77;5.43;;;;;;;5.72;55.20;101217.00;6222337;23;20026;-83
2021/04/04 01:24:22;;;;;;;9.38;5.35;;;;;;;5.65;55.22;101211.00;6215568;23;20052;-82
2021/04/04 01:26:51;;;;;;;8.13;4.78;;;;;;;5.62;56.35;101206.63;6224341;23;20072;-82
2021/04/04 01:29:20;;;;;;;9.60;5.07;;;;;;;5.59;55.86;101213.69;6230685;23;20047;-83
2021/04/04 01:31:49;;;;;;;9.57;5.13;;;;;;;5.57;55.86;101211.06;6230518;23;20047;-85
2021/04/04 01:34:18;;;;;;;10.68;5.53;;;;;;;5.51;56.03;101207.69;6231048;23;20051;-84
2021/04/04 01:36:48;;;;;;;9.95;5.80;;;;;;;5.51;56.13;101212.94;6230610;23;20020;-84
2021/04/04 01:39:17;;;;;;;15.95;6.07;;;;;;;5.47;56.18;101211.22;6231371;23;20063;-84
2021/04/04 01:41:43;;;;;;;10.00;5.53;;;;;;;5.48;56.54;101218.22;6225870;23;20082;-84
2021/04/04 01:44:19;;;;;;;11.48;5.70;;;;;;;5.44;55.96;101216.53;6219772;23;20016;-84
2021/04/04 01:46:47;;;;;;;11.30;6.07;;;;;;;5.43;56.47;101212.16;6219498;23;20020;-84
2021/04/04 01:49:15;;;;;;;12.90;6.38;;;;;;;5.39;57.00;101213.06;6216847;23;20099;-83
2021/04/04 01:51:43;;;;;;;11.18;6.28;;;;;;;5.34;57.05;101199.16;6217691;23;20085;-84
2021/04/04 01:54:10;;;;;;;18.80;7.03;;;;;;;5.33;57.22;101206.16;6218984;23;20025;-83
2021/04/04 01:56:36;;;;;;;10.57;5.70;;;;;;;5.29;57.50;101207.94;6218994;23;20067;-84
2021/04/04 01:59:06;;;;;;;11.88;6.63;;;;;;;5.19;57.82;101205.47;6215033;23;20036;-84
2021/04/04 02:01:34;;;;;;;16.48;6.50;;;;;;;5.19;57.86;101213.34;6219894;23;20024;-84
2021/04/04 02:04:07;;;;;;;11.07;6.25;;;;;;;5.03;57.91;101191.66;6224096;23;20035;-84
2021/04/04 02:06:38;;;;;;;12.80;6.25;;;;;;;5.12;58.19;101212.53;6236540;23;20043;-84
2021/04/04 02:09:06;;;;;;;12.65;6.32;;;;;;;5.12;58.35;101204.66;6235149;23;20020;-84
2021/04/04 02:11:34;;;;;;;12.32;6.05;;;;;;;5.08;58.47;101202.06;6227819;23;20044;-83
2021/04/04 02:14:06;;;;;;;14.88;6.38;;;;;;;5.04;58.42;101200.34;6223180;23;20020;-84
2021/04/04 02:16:35;;;;;;;12.65;6.28;;;;;;;5.00;59.01;101196.94;6237708;23;20016;-84
2021/04/04 02:19:07;;;;;;;11.52;6.00;;;;;;;4.97;59.48;101189.09;6240369;23;20036;-83
2021/04/04 02:21:34;;;;;;;14.82;6.30;;;;;;;4.94;59.58;101192.59;6240468;23;20050;-83
2021/04/04 02:24:07;;;;;;;14.32;6.60;;;;;;;4.94;59.65;101196.97;6233385;23;20019;-84
2021/04/04 02:30:20;;;;;;;12.68;6.40;;;;;;;4.93;60.86;101200.50;6229725;23;20100;-83
2021/04/04 02:32:53;;;;;;;12.15;6.45;;;;;;;4.88;60.47;101190.03;6229799;23;20020;-83
2021/04/04 02:35:27;;;;;;;15.73;6.38;;;;;;;4.88;60.58;101197.03;6229391;23;20032;-83
2021/04/04 02:37:56;;;;;;;12.88;6.75;;;;;;;4.85;60.93;101189.22;6238516;23;20035;-84
2021/04/04 02:40:23;;;;;;;14.82;6.65;;;;;;;4.83;61.51;101185.75;6240406;23;20040;-82
2021/04/04 02:42:50;;;;;;;13.27;6.95;;;;;;;4.78;61.65;101188.41;6238159;23;20009;-84
2021/04/04 02:45:18;;;;;;;15.27;6.28;;;;;;;4.83;62.19;101204.13;6237325;23;20005;-84
2021/04/04 02:47:51;;;;;;;14.80;6.50;;;;;;;4.80;61.63;101198.88;6235470;23;20001;-84
2021/04/04 02:50:20;;;;;;;13.77;6.78;;;;;;;4.74;62.17;101201.56;6234304;23;20025;-82
2021/04/04 02:52:48;;;;;;;23.13;6.68;;;;;;;4.68;62.84;101202.50;6234543;23;20025;-84
2021/04/04 02:55:16;;;;;;;14.65;6.72;;;;;;;4.69;62.81;101199.00;6239256;23;20043;-85
2021/04/04 02:57:45;;;;;;;13.32;7.15;;;;;;;4.70;62.88;101208.63;6240193;23;20040;-84
2021/04/04 03:00:15;;;;;;;18.08;6.72;;;;;;;4.64;63.29;101199.94;6238746;23;20031;-82
2021/04/04 03:02:44;;;;;;;15.75;7.47;;;;;;;4.69;63.16;101198.16;6239230;23;20020;-82
2021/04/04 03:05:11;;;;;;;15.60;6.18;;;;;;;4.71;62.99;101199.88;6236606;23;20020;-80
2021/04/04 03:07:43;;;;;;;17.77;6.65;;;;;;;4.72;63.81;101211.25;6230945;23;20021;-84
2021/04/04 03:10:11;;;;;;;21.30;7.18;;;;;;;4.70;63.80;101200.75;6222399;23;20024;-83
2021/04/04 03:12:39;;;;;;;15.82;6.57;;;;;;;4.70;64.33;101206.00;6195346;23;20823;-82
2021/04/04 03:15:12;;;;;;;16.10;7.32;;;;;;;4.73;64.19;101205.06;6221145;23;20533;-84
2021/04/04 03:17:43;;;;;;;15.98;6.60;;;;;;;4.72;64.22;101208.63;6220604;23;20021;-82
2021/04/04 03:20:11;;;;;;;16.85;7.45;;;;;;;4.68;64.97;101204.28;6220926;23;20036;-85
2021/04/04 03:22:43;;;;;;;19.65;7.13;;;;;;;4.69;64.96;101208.63;6226279;23;20310;-85
2021/04/04 03:25:11;;;;;;;19.60;8.15;;;;;;;4.68;64.67;101207.75;6237764;23;20116;-83
2021/04/04 03:27:42;;;;;;;16.50;6.80;;;;;;;4.66;65.50;101200.78;6234613;23;20036;-83
2021/04/04 03:33:00;;;;;;;15.52;6.90;;;;;;;4.70;65.17;101202.50;6225987;23;20099;-84
2021/04/04 03:35:28;;;;;;;15.05;6.50;;;;;;;4.64;65.45;101198.19;6222454;23;20021;-83
2021/04/04 03:38:01;;;;;;;26.05;7.90;;;;;;;4.58;65.88;101204.34;6232974;23;20020;-85
2021/04/04 03:40:27;;;;;;;18.77;7.20;;;;;;;4.64;66.12;101207.81;6237651;23;20021;-82
2021/04/04 03:42:56;;;;;;;16.75;7.03;;;;;;;4.64;66.41;101206.06;6236064;23;20105;-82
2021/04/04 03:45:23;;;;;;;18.10;7.07;;;;;;;4.66;66.19;101209.53;6227076;23;20024;-82
2021/04/04 03:47:54;;;;;;;19.70;7.07;;;;;;;4.65;66.26;101202.53;6223004;23;20028;-83
2021/04/04 03:50:22;;;;;;;14.85;6.60;;;;;;;4.64;66.86;101200.81;6218601;23;20019;-83
2021/04/04 03:52:50;;;;;;;17.30;6.80;;;;;;;4.68;66.25;101207.75;6221436;23;20020;-83
2021/04/04 03:55:22;;;;;;;18.60;7.43;;;;;;;4.62;66.34;101201.69;6195464;23;20076;-83
2021/04/04 03:57:50;;;;;;;17.05;7.35;;;;;;;4.64;66.66;101198.19;6214035;23;20016;-83
2021/04/04 04:00:20;;;;;;;22.63;7.07;;;;;;;4.66;66.32;101203.41;6216654;23;20016;-83
2021/04/04 04:02:48;;;;;;;19.90;6.85;;;;;;;4.66;66.88;101198.16;6218612;23;20111;-83
2021/04/04 04:05:16;;;;;;;22.08;7.25;;;;;;;4.69;66.99;101199.00;6214335;23;20092;-84
2021/04/04 04:07:44;;;;;;;20.80;7.18;;;;;;;4.65;66.60;101193.81;6191530;23;20024;-83
2021/04/04 04:10:12;;;;;;;23.70;7.25;;;;;;;4.67;66.85;101197.28;6213907;23;20020;-84
2021/04/04 04:12:39;;;;;;;16.77;7.10;;;;;;;4.62;66.64;101197.31;6212780;23;20029;-84
2021/04/04 04:15:06;;;;;;;17.75;7.80;;;;;;;4.61;67.03;101203.44;6216064;23;20577;-83
2021/04/04 04:17:33;;;;;;;20.83;7.30;;;;;;;4.58;67.34;101200.84;6214530;23;20400;-83
2021/04/04 04:20:01;;;;;;;14.82;6.82;;;;;;;4.61;67.44;101202.56;6217094;23;20024;-83
2021/04/04 04:22:28;;;;;;;22.55;7.95;;;;;;;4.55;67.57;101201.78;6214094;23;20059;-83
2021/04/04 04:24:54;;;;;;;17.35;7.35;;;;;;;4.49;67.35;101199.19;6217449;23;20090;-83
2021/04/04 04:27:23;;;;;;;19.05;7.82;;;;;;;4.46;67.86;101204.47;6219779;23;20456;-83
2021/04/04 04:29:50;;;;;;;20.25;8.30;;;;;;;4.46;67.96;101207.09;6216206;23;20393;-83
2021/04/04 04:32:23;;;;;;;19.80;7.93;;;;;;;4.49;67.88;101203.56;6191155;23;20398;-84
2021/04/04 04:34:53;;;;;;;17.83;7.53;;;;;;;4.49;67.74;101207.06;6214024;23;20047;-83
2021/04/04 04:37:20;;;;;;;19.20;8.02;;;;;;;4.52;67.73;101206.19;6190851;23;20128;-83
2021/04/04 04:39:47;;;;;;;22.50;7.97;;;;;;;4.42;67.61;101196.63;6221488;23;20063;-83
2021/04/04 04:42:15;;;;;;;21.60;7.25;;;;;;;4.50;68.19;101208.81;6231774;23;20028;-84
2021/04/04 04:44:45;;;;;;;22.90;8.48;;;;;;;4.52;68.02;101201.81;6241387;23;20016;-81
2021/04/04 04:47:13;;;;;;;20.73;7.55;;;;;;;4.52;68.07;101201.81;6229973;23;20021;-84
2021/04/04 04:49:45;;;;;;;18.02;7.55;;;;;;;4.56;67.74;101200.84;6235915;23;20025;-81
2021/04/04 04:52:13;;;;;;;15.20;7.70;;;;;;;4.61;67.27;101199.94;6232267;23;20028;-84
2021/04/04 04:54:41;;;;;;;18.48;7.45;;;;;;;4.54;67.70;101197.41;6226027;23;20042;-84
2021/04/04 04:57:12;;;;;;;19.42;7.57;;;;;;;4.50;67.88;101192.19;6219014;23;20021;-83
2021/04/04 04:59:39;;;;;;;20.50;7.77;;;;;;;4.53;68.60;101190.44;6213323;23;20016;-84
2021/04/04 05:02:08;;;;;;;17.63;6.90;;;;;;;4.60;68.50;101183.34;6214879;23;20028;-83
2021/04/04 05:04:34;;;;;;;20.75;7.82;;;;;;;4.73;68.04;101189.34;6189847;23;20025;-84
2021/04/04 05:07:01;;;;;;;25.73;7.93;;;;;;;4.79;67.96;101184.03;6215729;23;20108;-83
2021/04/04 05:09:31;;;;;;;23.52;7.90;;;;;;;4.87;67.35;101185.69;6216473;23;20174;-85
2021/04/04 05:12:00;;;;;;;26.60;8.67;;;;;;;4.92;67.29;101185.63;6220742;23;20028;-84
2021/04/04 05:14:26;;;;;;;21.38;7.85;;;;;;;4.97;66.97;101188.22;6233669;23;20009;-83
2021/04/04 05:16:53;;;;;;;15.85;7.45;;;;;;;4.98;67.59;101185.56;6235457;23;20028;-84
2021/04/04 05:19:22;;;;;;;17.88;7.53;;;;;;;4.98;67.03;101182.06;6220751;23;20520;-82
2021/04/04 05:21:48;;;;;;;20.83;7.40;;;;;;;5.05;67.21;101187.22;6193873;23;20036;-83
2021/04/04 05:24:17;;;;;;;20.88;7.60;;;;;;;5.07;67.11;101184.59;6224592;23;20024;-83
2021/04/04 05:26:46;;;;;;;18.98;7.68;;;;;;;5.08;67.32;101187.19;6218832;23;20043;-82
2021/04/04 05:29:16;;;;;;;19.23;8.15;;;;;;;5.15;66.65;101183.63;6231835;23;20096;-83
2021/04/04 05:31:49;;;;;;;20.38;8.23;;;;;;;5.18;66.60;101194.09;6223568;23;20067;-84
2021/04/04 05:34:17;;;;;;;18.98;7.47;;;;;;;5.23;66.86;101191.38;6214895;23;20059;-84
2021/04/04 05:37:01;;;;;;;23.25;8.30;;;;;;;5.31;65.57;101197.44;6216226;23;20032;-83
2021/04/04 05:39:29;;;;;;;30.02;9.30;;;;;;;5.35;66.16;101198.25;6215601;23;20096;-84
2021/04/04 05:42:00;;;;;;;22.20;7.88;;;;;;;5.34;65.95;101196.53;6215653;23;20032;-84
2021/04/04 05:44:45;;;;;;;;;;;;;;;5.39;66.14;101206.06;6211929;23;20083;-83
2021/04/04 05:47:30;;;;;;;16.92;7.65;;;;;;;5.46;65.39;101205.09;6212999;23;19919;-83
2021/04/04 05:50:29;;;;;;;18.85;7.45;;;;;;;5.57;65.16;101202.31;6187747;23;20123;-84
2021/04/04 05:53:04;;;;;;;17.95;7.53;;;;;;;5.57;65.50;101194.44;6222618;23;20050;-83
2021/04/04 05:56:12;;;;;;;19.15;7.18;;;;;;;5.73;65.24;101211.72;6235119;23;20020;-81
2021/04/04 05:58:39;;;;;;;15.02;7.75;;;;;;;5.79;65.17;101219.53;6230690;23;20020;-83
2021/04/04 06:01:30;;;;;;;20.27;7.82;;;;;;;5.84;64.72;101212.44;6219646;23;20017;-84
2021/04/04 06:04:33;;;;;;;17.40;7.90;;;;;;;6.01;63.83;101209.59;6143760;23;20025;-82
2021/04/04 06:07:21;;;;;;;21.88;7.93;;;;;;;6.18;63.84;101220.72;6215926;23;20023;-84
2021/04/04 06:10:04;;;;;;;17.35;7.40;;;;;;;6.40;63.60;101209.88;6218489;23;20024;-82
2021/04/04 06:12:39;;;;;;;24.83;7.65;;;;;;;6.55;62.33;101217.50;6215859;23;20103;-83
2021/04/04 06:15:26;;;;;;;18.10;7.85;;;;;;;6.68;62.30;101213.75;6216972;23;20099;-84
2021/04/04 06:18:06;;;;;;;20.80;7.85;;;;;;;6.84;62.05;101214.31;6218989;23;20020;-83
2021/04/04 06:20:59;;;;;;;20.03;7.67;;;;;;;6.98;60.96;101218.44;6218194;23;20056;-83
2021/04/04 06:23:58;;;;;;;16.50;7.47;;;;;;;6.91;60.68;101213.34;6203189;23;20025;-83
2021/04/04 06:26:35;;;;;;;18.43;7.43;;;;;;;6.84;60.96;101222.22;6235419;23;20083;-83
2021/04/04 06:29:15;;;;;;;19.98;7.00;;;;;;;6.84;60.89;101198.53;6231756;23;20040;-83
2021/04/04 06:32:20;;;;;;;17.90;6.72;;;;;;;6.98;61.43;101217.56;6206983;23;20043;-84
2021/04/04 06:34:55;;;;;;;25.05;8.35;;;;;;;7.10;61.19;101213.81;6231800;23;20012;-84
2021/04/04 06:37:53;;;;;;;19.83;7.22;;;;;;;7.20;60.92;101218.91;6236340;23;20127;-83
2021/04/04 06:40:37;;;;;;;19.30;7.93;;;;;;;7.33;60.76;101215.13;6233259;23;20032;-85
2021/04/04 06:43:37;;;;;;;21.30;7.97;;;;;;;7.46;60.12;101206.94;6218521;23;20374;-83
2021/04/04 06:46:06;;;;;;;24.33;7.33;;;;;;;7.58;59.55;101209.31;6218230;23;20024;-82
2021/04/04 06:48:57;;;;;;;20.23;8.02;;;;;;;7.72;59.53;101208.09;6221161;23;20055;-83
2021/04/04 06:51:41;;;;;;;;;;;;;;;7.93;58.91;101212.03;6230961;23;20128;-82
2021/04/04 06:54:10;;;;;;;18.90;8.05;;;;;;;8.11;57.83;101205.47;6226322;23;19918;-84
2021/04/04 06:57:26;;;;;;;15.43;6.80;;;;;;;8.18;57.59;101211.47;6226651;23;20048;-84
2021/04/04 07:00:09;;;;;;;16.95;7.65;;;;;;;8.24;57.32;101206.88;6075354;23;20106;-84
2021/04/04 07:03:07;;;;;;;19.80;7.50;;;;;;;8.57;55.93;101210.50;6233343;23;20009;-84
2021/04/04 07:06:05;;;;;;;20.70;7.68;;;;;;;10.17;52.78;101209.34;6233556;23;20020;-84
2021/04/04 07:09:04;;;;;;;19.52;7.43;;;;;;;11.79;47.25;101203.59;6209157;23;20517;-84
2021/04/04 07:11:49;;;;;;;17.08;6.80;;;;;;;12.47;45.11;101200.78;6196821;23;20093;-83
2021/04/04 07:15:00;;;;;;;17.05;6.90;;;;;;;13.29;43.29;101202.53;6206441;23;20057;-83
2021/04/04 07:17:45;;;;;;;18.17;6.68;;;;;;;13.76;42.03;101201.28;6115849;23;20020;-82
2021/04/04 07:20:31;;;;;;;17.33;6.68;;;;;;;13.89;41.88;101197.94;6228757;23;20167;-85
2021/04/04 07:23:22;;;;;;;20.35;7.07;;;;;;;14.54;40.05;101193.88;6206861;23;20044;-85
2021/04/04 07:26:26;;;;;;;17.60;6.97;;;;;;;15.25;39.02;101197.28;6237656;23;20016;-84
2021/04/04 07:29:30;;;;;;;19.48;7.25;;;;;;;15.60;37.84;101198.03;6235822;23;20114;-84
2021/04/04 07:32:07;;;;;;;17.65;6.43;;;;;;;15.61;37.26;101199.75;6235564;23;20051;-85
2021/04/04 07:34:48;;;;;;;15.13;6.28;;;;;;;15.08;37.87;101198.16;6235606;23;20044;-84
2021/04/04 07:37:19;;;;;;;;;;;;;;;15.00;37.81;101196.81;6234312;23;20023;-85
2021/04/04 07:40:00;;;;;;;16.60;6.40;;;;;;;15.13;38.66;101194.38;6236343;23;19940;-84
2021/04/04 07:42:49;;;;;;;15.10;6.32;;;;;;;15.44;37.49;101194.44;6202008;23;20099;-85
2021/04/04 07:45:23;;;;;;;17.17;6.47;;;;;;;15.75;37.32;101191.84;6232589;23;20044;-84
2021/04/04 07:48:26;;;;;;;12.95;6.47;;;;;;;16.21;36.34;101189.25;6234644;23;20013;-84
2021/04/04 07:51:12;;;;;;;17.13;6.00;;;;;;;16.92;35.11;101194.00;6232399;23;20025;-84
2021/04/04 07:53:48;;;;;;;13.10;6.32;;;;;;;16.95;34.57;101196.47;6230751;23;20024;-84
2021/04/04 07:56:43;;;;;;;17.15;6.70;;;;;;;16.66;35.07;101187.53;6228279;23;20027;-84
2021/04/04 07:59:09;;;;;;;17.45;7.45;;;;;;;16.58;35.12;101184.41;6221296;23;20040;-84
2021/04/04 08:01:57;;;;;;;17.48;6.97;;;;;;;15.78;36.02;101185.47;6216847;23;20063;-85
2021/04/04 08:04:39;;;;;;;18.95;7.20;;;;;;;15.23;37.24;101184.94;6195046;23;20051;-84
2021/04/04 08:07:15;;;;;;;13.23;6.00;;;;;;;15.21;38.26;101184.16;6222847;23;20027;-85
2021/04/04 08:09:48;;;;;;;13.98;6.13;;;;;;;15.72;37.46;101178.69;6227761;23;20051;-84
2021/04/04 08:12:49;;;;;;;17.45;6.80;;;;;;;16.02;36.08;101178.75;6223866;23;20192;-84
2021/04/04 08:15:19;;;;;;;14.18;6.90;;;;;;;15.97;36.48;101185.31;6167828;23;20079;-84
2021/04/04 08:17:45;;;;;;;18.55;6.90;;;;;;;15.54;36.75;101169.00;6196362;23;20084;-83
2021/04/04 08:20:42;;;;;;;15.13;6.70;;;;;;;15.06;37.39;101184.03;6228525;23;20080;-82
2021/04/04 08:23:24;;;;;;;21.05;7.03;;;;;;;15.01;37.94;101171.88;6234430;23;20017;-84
2021/04/04 08:26:07;;;;;;;16.33;6.32;;;;;;;15.59;37.50;101169.59;6232492;23;20024;-83
2021/04/04 08:28:43;;;;;;;16.17;6.57;;;;;;;16.14;36.08;101169.16;6232589;23;20017;-84
2021/04/04 08:31:24;;;;;;;14.88;7.13;;;;;;;16.16;34.86;101169.94;6204937;23;20104;-84
2021/04/04 08:34:15;;;;;;;16.25;6.70;;;;;;;16.02;36.27;101170.75;6236469;23;20115;-85
2021/04/04 08:36:48;;;;;;;14.77;6.40;;;;;;;15.56;36.66;101169.81;6240872;23;20016;-84
2021/04/04 08:39:18;;;;;;;17.33;7.20;;;;;;;14.79;37.77;101180.16;6240075;23;20008;-86
2021/04/04 08:41:46;;;;;;;20.80;7.90;;;;;;;13.87;39.91;101169.66;6237038;23;20028;-85
2021/04/04 08:44:25;;;;;;;21.85;8.13;;;;;;;13.53;40.61;101165.97;6228668;23;20407;-83
2021/04/04 08:47:04;;;;;;;14.65;6.97;;;;;;;13.12;41.46;101178.47;6223839;23;20039;-83
2021/04/04 08:49:34;;;;;;;20.42;8.07;;;;;;;12.77;43.38;101180.00;6225893;23;20054;-82
2021/04/04 08:52:11;;;;;;;21.85;8.35;;;;;;;12.53;43.64;101175.78;6195812;23;20032;-83
2021/04/04 08:54:40;;;;;;;24.58;8.38;;;;;;;12.19;44.34;101166.56;6225024;23;20070;-82
2021/04/04 08:57:07;;;;;;;21.33;7.95;;;;;;;11.92;44.51;101173.00;6224655;23;20013;-82
2021/04/04 08:59:35;;;;;;;22.05;7.85;;;;;;;11.84;44.92;101170.63;6219161;23;20032;-83
2021/04/04 09:02:05;;;;;;;23.35;7.50;;;;;;;11.75;45.84;101164.81;6222212;23;20048;-85
2021/04/04 09:04:39;;;;;;;20.95;8.38;;;;;;;11.83;46.26;101173.34;6196133;23;20040;-85
2021/04/04 09:07:06;;;;;;;21.27;8.27;;;;;;;12.12;46.23;101180.16;6197318;23;20040;-84
2021/04/04 09:09:40;;;;;;;17.02;7.10;;;;;;;12.33;44.47;101163.31;6229312;23;20037;-84
2021/04/04 09:12:07;;;;;;;18.80;8.00;;;;;;;12.60;44.22;101172.78;6231490;23;20043;-85
2021/04/04 09:14:37;;;;;;;16.52;7.93;;;;;;;12.74;43.96;101177.53;6228675;23;20445;-85
2021/04/04 09:17:18;;;;;;;22.50;8.25;;;;;;;12.88;43.25;101156.50;6232150;23;20039;-82
2021/04/04 09:19:47;;;;;;;;;;;;;;;13.11;42.76;101159.91;6237491;23;20028;-84
2021/04/04 09:22:15;;;;;;;20.83;8.23;;;;;;;13.14;42.59;101167.75;6241086;23;19919;-84
2021/04/04 09:24:50;;;;;;;13.70;7.80;;;;;;;12.99;42.35;101167.53;6241704;23;20019;-83
2021/04/04 09:27:20;;;;;;;20.05;8.95;;;;;;;12.89;43.20;101166.22;6239070;23;20013;-84
2021/04/04 09:29:50;;;;;;;21.05;9.07;;;;;;;12.87;43.37;101160.09;6239980;23;20072;-83
2021/04/04 09:32:38;;;;;;;23.30;8.57;;;;;;;12.77;43.26;101164.06;6238959;23;20021;-85
2021/04/04 09:35:14;;;;;;;22.52;8.60;;;;;;;12.69;42.68;101160.03;6235098;23;20086;-85
2021/04/04 09:37:41;;;;;;;22.20;8.30;;;;;;;12.49;43.74;101164.41;6233206;23;20039;-85
2021/04/04 09:40:11;;;;;;;21.10;8.98;;;;;;;12.49;43.83;101155.56;6207944;23;20036;-85
2021/04/04 09:42:39;;;;;;;20.33;8.10;;;;;;;12.40;44.39;101151.53;6231853;23;20024;-85
2021/04/04 09:45:12;;;;;;;20.27;9.35;;;;;;;12.60;44.04;101155.97;6231894;23;20537;-84
2021/04/04 09:47:42;;;;;;;20.85;8.80;;;;;;;12.78;43.78;101149.84;6227653;23;20099;-84
2021/04/04 09:50:26;;;;;;;23.45;8.73;;;;;;;12.81;43.58;101143.53;6218817;23;20080;-83
2021/04/04 09:52:53;;;;;;;25.38;9.80;;;;;;;12.59;43.57;101138.31;6220898;23;20021;-82
2021/04/04 09:55:22;;;;;;;20.50;8.45;;;;;;;12.56;44.20;101149.94;6225799;23;20020;-83
2021/04/04 09:58:00;;;;;;;22.73;9.30;;;;;;;12.58;43.97;101141.91;6224741;23;20024;-84
2021/04/04 10:00:28;;;;;;;18.48;8.48;;;;;;;12.57;43.68;101140.19;6227945;23;20458;-84
2021/04/04 10:03:07;;;;;;;21.25;9.63;;;;;;;12.43;43.91;101129.28;6200942;23;20124;-84
2021/04/04 10:05:37;;;;;;;18.30;8.63;;;;;;;12.39;44.16;101138.31;6222301;23;20020;-84
2021/04/04 10:08:21;;;;;;;20.48;9.15;;;;;;;12.46;44.83;101126.47;6229811;23;20076;-84
2021/04/04 10:10:49;;;;;;;20.35;8.93;;;;;;;12.68;43.37;101134.41;6232896;23;20044;-83
2021/04/04 10:13:17;;;;;;;21.60;9.82;;;;;;;12.62;42.94;101127.53;6227912;23;20020;-83
2021/04/04 10:15:53;;;;;;;19.95;9.45;;;;;;;12.50;43.43;101120.97;6225221;23;20035;-84
2021/04/04 10:18:23;;;;;;;20.27;9.30;;;;;;;12.64;43.33;101125.69;6227083;23;20040;-84
2021/04/04 10:20:58;;;;;;;23.80;9.57;;;;;;;12.71;43.66;101127.16;6196652;23;20032;-83
2021/04/04 10:23:33;;;;;;;22.10;10.02;;;;;;;12.87;43.15;101122.03;6221568;23;20028;-84
2021/04/04 10:26:06;;;;;;;21.17;9.57;;;;;;;12.96;42.45;101117.13;6217264;23;20016;-84
2021/04/04 10:28:53;;;;;;;22.95;9.77;;;;;;;12.82;42.37;101124.88;6188371;23;20107;-83
2021/04/04 10:31:23;;;;;;;23.05;9.43;;;;;;;12.49;43.18;101129.00;6216446;23;20060;-82
2021/04/04 10:33:58;;;;;;;15.85;8.75;;;;;;;12.46;44.04;101124.69;6189884;23;20076;-85
2021/04/04 10:36:27;;;;;;;21.90;9.73;;;;;;;12.58;44.15;101120.66;6226482;23;20143;-84
2021/04/04 10:38:57;;;;;;;18.52;9.05;;;;;;;12.65;43.93;101120.31;6219577;23;20031;-83
2021/04/04 10:41:36;;;;;;;19.20;9.47;;;;;;;12.56;43.22;101118.06;6213428;23;20048;-83
2021/04/04 10:44:07;;;;;;;22.52;9.32;;;;;;;12.47;43.06;101114.94;6226627;23;20025;-84
2021/04/04 10:46:34;;;;;;;22.05;10.07;;;;;;;12.33;43.07;101114.66;6224617;23;20032;-82
2021/04/04 10:49:04;;;;;;;20.67;10.48;;;;;;;12.12;44.10;101106.66;6214814;23;20039;-82
2021/04/04 10:51:33;;;;;;;22.73;9.27;;;;;;;12.13;43.90;101108.41;6218595;23;20090;-83
2021/04/04 10:54:04;;;;;;;21.60;8.95;;;;;;;11.88;45.03;101118.31;6214699;23;20089;-83
2021/04/04 10:56:30;;;;;;;26.15;9.38;;;;;;;11.69;45.36;101106.66;6219529;23;20107;-84
2021/04/04 10:59:01;;;;;;;27.67;9.90;;;;;;;11.68;45.85;101091.69;6218893;23;20070;-85
2021/04/04 11:01:33;;;;;;;23.38;9.50;;;;;;;12.01;44.67;101092.13;6197467;23;20056;-85
2021/04/04 11:04:00;;;;;;;19.67;9.85;;;;;;;12.14;45.13;101082.72;6233615;23;20067;-83
2021/04/04 11:06:27;;;;;;;19.92;9.82;;;;;;;12.14;44.40;101086.22;6236624;23;20063;-84
2021/04/04 11:08:53;;;;;;;20.33;8.18;;;;;;;12.14;45.05;101077.41;6234910;23;20021;-84
2021/04/04 11:11:20;;;;;;;19.20;8.43;;;;;;;12.01;44.59;101078.84;6229630;23;20024;-85
2021/04/04 11:13:53;;;;;;;21.05;9.20;;;;;;;11.68;45.26;101081.06;6226415;23;20051;-84
2021/04/04 11:16:22;;;;;;;26.33;10.50;;;;;;;11.49;45.76;101076.50;6224786;23;20220;-84
2021/04/04 11:18:56;;;;;;;22.45;8.88;;;;;;;11.44;46.41;101086.44;6229572;23;20031;-84
2021/04/04 11:21:27;;;;;;;22.08;9.20;;;;;;;11.41;46.23;101078.59;6213156;23;20020;-84
2021/04/04 11:23:53;;;;;;;23.67;8.70;;;;;;;11.60;46.48;101074.31;6239263;23;20021;-83
2021/04/04 11:26:34;;;;;;;20.75;9.10;;;;;;;11.88;45.86;101070.53;6239134;23;20012;-83
2021/04/04 11:29:18;;;;;;;18.23;8.65;;;;;;;12.26;44.97;101068.94;6228653;23;20021;-84
2021/04/04 11:31:57;;;;;;;24.48;8.45;;;;;;;12.51;44.10;101069.56;6215625;23;20033;-84
2021/04/04 11:34:38;;;;;;;20.75;9.85;;;;;;;12.68;43.59;101066.16;6213891;23;20055;-84
2021/04/04 11:37:26;;;;;;;23.25;9.38;;;;;;;12.95;42.67;101059.59;6224077;23;20020;-84
2021/04/04 11:40:11;;;;;;;18.30;8.50;;;;;;;13.11;42.96;101062.41;6208256;23;20033;-84
2021/04/04 11:42:38;;;;;;;17.30;8.30;;;;;;;13.23;42.78;101061.84;6218190;23;20091;-83
2021/04/04 11:45:07;;;;;;;14.77;8.40;;;;;;;13.10;42.25;101057.16;6216391;23;20100;-86
2021/04/04 11:47:33;;;;;;;20.85;8.43;;;;;;;12.84;43.10;101045.94;6224945;23;20076;-83
2021/04/04 11:49:59;;;;;;;25.85;9.63;;;;;;;12.63;43.06;101049.56;6236188;23;20122;-84
2021/04/04 11:52:25;;;;;;;18.65;9.30;;;;;;;12.35;43.41;101043.75;6231276;23;20323;-83
2021/04/04 11:54:56;;;;;;;20.35;9.38;;;;;;;12.25;43.95;101049.47;6215499;23;20028;-83
2021/04/04 11:57:34;;;;;;;21.38;9.13;;;;;;;12.26;44.94;101045.91;6214212;23;20020;-84
2021/04/04 12:00:10;;;;;;;19.20;9.57;;;;;;;12.43;42.75;101044.28;6187738;23;20047;-83
2021/04/04 12:02:39;;;;;;;21.70;10.52;;;;;;;12.64;41.14;101045.97;6224661;23;20068;-82